Time;durP1;ratioP1;P1;durP2;ratioP2;P2;SDS_P1;SDS_P2;PMS_P1;PMS_P2;Temp;Humidity;BMP_temperature;BMP_pressure;BME280_temperature;BME280_humidity;BME280_pressure;Samples;Min_cycle;Max_cycle;Signal;HPM_P1;HPM_P2
2024/03/11 00:02:08;;;;;;;40.80;22.85;;;8.70;99.90;;;;;;5089190;28;20020;-51
2024/03/11 00:04:34;;;;;;;41.00;23.17;;;8.70;99.90;;;;;;5090567;28;20054;-55
2024/03/11 00:07:01;;;;;;;42.70;23.23;;;8.70;99.90;;;;;;5093143;28;20099;-52
2024/03/11 00:09:32;;;;;;;43.67;23.10;;;8.70;99.90;;;;;;5084129;28;20036;-51
2024/03/11 00:11:59;;;;;;;42.60;22.50;;;8.70;99.90;;;;;;5091774;28;20036;-54
2024/03/11 00:14:28;;;;;;;36.78;21.48;;;8.60;99.90;;;;;;5092284;28;20398;-53
2024/03/11 00:16:55;;;;;;;44.50;23.02;;;8.60;99.90;;;;;;5083848;28;20036;-55
2024/03/11 00:19:21;;;;;;;40.90;22.73;;;8.50;99.90;;;;;;5085191;28;20420;-52
2024/03/11 00:21:47;;;;;;;43.92;24.08;;;8.50;99.90;;;;;;5084169;28;20031;-55
2024/03/11 00:24:14;;;;;;;36.90;22.20;;;8.50;99.90;;;;;;5085571;28;20021;-51
2024/03/11 00:26:40;;;;;;;43.88;22.88;;;8.50;99.90;;;;;;5082094;28;20028;-52
2024/03/11 00:29:05;;;;;;;44.65;23.90;;;8.50;99.90;;;;;;5081177;28;20086;-54
2024/03/11 00:31:32;;;;;;;40.55;23.05;;;8.50;99.90;;;;;;5085418;28;20111;-51
2024/03/11 00:33:58;;;;;;;44.33;25.08;;;8.50;99.90;;;;;;5083647;28;20032;-55
2024/03/11 00:36:24;;;;;;;42.03;22.20;;;8.50;99.90;;;;;;5086641;28;20070;-54
2024/03/11 00:38:50;;;;;;;48.28;23.88;;;8.50;99.90;;;;;;5081338;28;20437;-51
2024/03/11 00:41:15;;;;;;;48.45;24.25;;;8.40;99.90;;;;;;5086338;28;20608;-51
2024/03/11 00:43:45;;;;;;;44.10;23.70;;;8.40;99.90;;;;;;5084156;28;20083;-51
2024/03/11 00:46:11;;;;;;;48.90;24.17;;;8.40;99.90;;;;;;5084307;28;20032;-51
2024/03/11 00:48:36;;;;;;;40.60;22.50;;;8.40;99.90;;;;;;5085774;28;20185;-54
2024/03/11 00:51:04;;;;;;;48.08;24.45;;;8.40;99.90;;;;;;5082625;28;20067;-51
2024/03/11 00:53:30;;;;;;;41.38;23.30;;;8.40;99.90;;;;;;5069738;28;20050;-53
2024/03/11 00:55:56;;;;;;;47.50;23.55;;;8.30;99.90;;;;;;5087061;28;20032;-54
2024/03/11 00:58:23;;;;;;;44.65;23.90;;;8.30;99.90;;;;;;5090475;28;20054;-59
2024/03/11 01:00:50;;;;;;;47.22;24.83;;;8.30;99.90;;;;;;5090499;28;20024;-57
2024/03/11 01:03:16;;;;;;;45.22;24.55;;;8.30;99.90;;;;;;5090755;28;20028;-53
2024/03/11 01:05:41;;;;;;;45.10;24.65;;;8.30;99.90;;;;;;5084484;28;20035;-54
2024/03/11 01:08:07;;;;;;;52.75;26.52;;;8.30;99.90;;;;;;5090340;28;20035;-55
2024/03/11 01:10:33;;;;;;;47.28;25.02;;;8.30;99.90;;;;;;5087903;28;20048;-56
2024/03/11 01:12:58;;;;;;;50.88;26.33;;;8.30;99.90;;;;;;5087922;28;20539;-53
2024/03/11 01:15:25;;;;;;;47.92;25.23;;;8.20;99.90;;;;;;5069271;28;20032;-51
2024/03/11 01:17:51;;;;;;;47.33;24.80;;;8.20;99.90;;;;;;5082989;28;20091;-51
2024/03/11 01:20:17;;;;;;;47.53;24.75;;;8.20;99.90;;;;;;5082572;28;20112;-51
2024/03/11 01:22:42;;;;;;;49.20;26.52;;;8.20;99.90;;;;;;5081131;28;20024;-53
2024/03/11 01:25:09;;;;;;;44.30;23.35;;;8.20;99.90;;;;;;5085286;28;20032;-52
2024/03/11 01:27:35;;;;;;;50.53;25.75;;;8.20;99.90;;;;;;5082767;28;20032;-52
2024/03/11 01:30:01;;;;;;;46.40;25.10;;;8.20;99.90;;;;;;5079281;28;20039;-51
2024/03/11 01:32:28;;;;;;;47.97;24.33;;;8.20;99.90;;;;;;5080785;28;20032;-54
2024/03/11 01:34:55;;;;;;;51.30;26.02;;;8.20;99.90;;;;;;5080903;28;20135;-51
2024/03/11 01:37:22;;;;;;;53.45;25.13;;;8.10;99.90;;;;;;5081290;28;20410;-53
2024/03/11 01:39:51;;;;;;;49.70;25.80;;;8.10;99.90;;;;;;5082623;28;20660;-52
2024/03/11 01:42:17;;;;;;;53.03;26.70;;;8.10;99.90;;;;;;5081524;28;20043;-54
2024/03/11 01:44:44;;;;;;;47.00;25.25;;;8.10;99.90;;;;;;5081084;28;20028;-52
2024/03/11 01:47:12;;;;;;;53.67;24.65;;;8.10;99.90;;;;;;5080040;28;20027;-54
2024/03/11 01:49:41;;;;;;;49.13;26.05;;;8.10;99.90;;;;;;5080185;28;20042;-53
2024/03/11 01:52:07;;;;;;;52.78;26.02;;;8.10;99.90;;;;;;5080868;28;20020;-53
2024/03/11 01:54:36;;;;;;;50.25;24.60;;;8.10;99.90;;;;;;5060598;28;20509;-52
2024/03/11 01:57:04;;;;;;;48.15;25.13;;;8.10;99.90;;;;;;5085875;28;20409;-57
2024/03/11 01:59:34;;;;;;;48.95;24.83;;;8.10;99.90;;;;;;5086150;28;20039;-54
2024/03/11 02:02:10;;;;;;;48.20;24.58;;;8.10;99.90;;;;;;5086208;28;20061;-54
2024/03/11 02:04:44;;;;;;;57.08;25.08;;;8.10;99.90;;;;;;5082919;28;20015;-52
2024/03/11 02:07:13;;;;;;;47.00;24.27;;;8.10;99.90;;;;;;5088805;28;20505;-53
2024/03/11 02:09:42;;;;;;;56.22;27.90;;;8.10;99.90;;;;;;5081296;28;20039;-55
2024/03/11 02:12:12;;;;;;;47.40;24.95;;;8.10;99.90;;;;;;5081837;28;20031;-51
2024/03/11 02:14:38;;;;;;;52.55;25.73;;;8.10;99.90;;;;;;5064664;28;20032;-51
2024/03/11 02:17:04;;;;;;;51.55;26.90;;;8.10;99.90;;;;;;5087776;28;20398;-57
2024/03/11 02:19:31;;;;;;;51.83;26.65;;;8.10;99.90;;;;;;5081111;28;20032;-55
2024/03/11 02:21:57;;;;;;;55.40;27.67;;;8.10;99.90;;;;;;5088078;28;20441;-52
2024/03/11 02:24:25;;;;;;;45.90;24.73;;;8.10;99.90;;;;;;5091249;28;20024;-56
2024/03/11 02:26:50;;;;;;;50.65;25.95;;;8.10;99.90;;;;;;5089724;28;20097;-56
2024/03/11 02:29:17;;;;;;;53.65;25.92;;;8.20;99.90;;;;;;5088818;28;20048;-52
2024/03/11 02:31:48;;;;;;;53.28;27.08;;;8.10;99.90;;;;;;5071971;28;20039;-51
2024/03/11 02:34:16;;;;;;;52.47;25.58;;;8.10;99.90;;;;;;5048298;28;20029;-53
2024/03/11 02:36:46;;;;;;;51.08;25.60;;;8.10;99.90;;;;;;5087580;28;20485;-56
2024/03/11 02:39:15;;;;;;;50.92;24.77;;;8.20;99.90;;;;;;5078837;28;20028;-56
2024/03/11 02:41:44;;;;;;;50.95;25.02;;;8.20;99.90;;;;;;5085904;28;20423;-57
2024/03/11 02:44:12;;;;;;;45.10;23.90;;;8.20;99.90;;;;;;5085118;28;20024;-52
2024/03/11 02:46:38;;;;;;;48.97;24.83;;;8.20;99.90;;;;;;5085633;28;20025;-54
2024/03/11 02:49:03;;;;;;;41.92;24.05;;;8.20;99.90;;;;;;5079951;28;20082;-52
2024/03/11 02:51:30;;;;;;;45.75;23.73;;;8.20;99.90;;;;;;5059230;28;20397;-52
2024/03/11 02:53:56;;;;;;;50.63;24.40;;;8.20;99.90;;;;;;5080872;28;20016;-54
2024/03/11 02:56:22;;;;;;;49.50;24.42;;;8.20;99.90;;;;;;5088235;28;20040;-54
2024/03/11 02:58:49;;;;;;;47.42;23.70;;;8.20;99.90;;;;;;5078821;28;20058;-54
2024/03/11 03:01:16;;;;;;;46.78;25.05;;;8.20;99.90;;;;;;5084465;28;20025;-54
2024/03/11 03:03:47;;;;;;;51.90;26.10;;;8.20;99.90;;;;;;5081090;28;20530;-52
2024/03/11 03:06:16;;;;;;;46.78;24.95;;;8.20;99.90;;;;;;5088838;28;20570;-55
2024/03/11 03:08:42;;;;;;;51.83;26.02;;;8.20;99.90;;;;;;5081791;28;20051;-56
2024/03/11 03:11:08;;;;;;;49.47;25.63;;;8.20;99.90;;;;;;5082343;28;20477;-54
2024/03/11 03:13:33;;;;;;;48.45;25.48;;;8.20;99.90;;;;;;5082453;28;20028;-55
2024/03/11 03:15:59;;;;;;;44.33;23.95;;;8.20;99.90;;;;;;5086950;28;20028;-52
2024/03/11 03:18:25;;;;;;;51.85;25.90;;;8.20;99.90;;;;;;5089038;28;20032;-55
2024/03/11 03:20:50;;;;;;;42.38;25.17;;;8.20;99.90;;;;;;5091677;28;20174;-51
2024/03/11 03:23:17;;;;;;;41.72;23.25;;;8.20;99.90;;;;;;5090944;28;20020;-51
2024/03/11 03:25:43;;;;;;;45.83;24.73;;;8.20;99.90;;;;;;5086700;28;20016;-52
2024/03/11 03:28:08;;;;;;;51.08;26.45;;;8.20;99.90;;;;;;5093384;28;20031;-52
2024/03/11 03:30:35;;;;;;;46.75;26.88;;;8.20;99.90;;;;;;5086670;28;20509;-53
2024/03/11 03:33:01;;;;;;;49.30;26.27;;;8.20;99.90;;;;;;5068887;28;20068;-51
2024/03/11 03:35:27;;;;;;;53.00;25.38;;;8.20;99.90;;;;;;5069352;28;20036;-54
2024/03/11 03:37:55;;;;;;;54.05;26.58;;;8.20;99.90;;;;;;5086105;28;20063;-52
2024/03/11 03:40:22;;;;;;;50.45;26.90;;;8.20;99.90;;;;;;5087956;28;20097;-55
2024/03/11 03:42:49;;;;;;;49.90;26.35;;;8.20;99.90;;;;;;5081337;28;20032;-52
2024/03/11 03:45:16;;;;;;;53.17;27.20;;;8.20;99.90;;;;;;5091233;28;20078;-52
2024/03/11 03:47:42;;;;;;;49.75;26.58;;;8.20;99.90;;;;;;5082151;28;20091;-53
2024/03/11 03:50:10;;;;;;;47.30;25.23;;;8.20;99.90;;;;;;5071044;28;20028;-51
2024/03/11 03:52:38;;;;;;;47.88;26.23;;;8.20;99.90;;;;;;5090242;28;20032;-51
2024/03/11 03:55:05;;;;;;;48.90;26.67;;;8.20;99.90;;;;;;5072622;28;20032;-51
2024/03/11 03:57:31;;;;;;;49.83;26.85;;;8.20;99.90;;;;;;5089127;28;20032;-54
2024/03/11 03:59:57;;;;;;;50.17;27.33;;;8.20;99.90;;;;;;5092339;28;20478;-52
2024/03/11 04:02:22;;;;;;;52.55;29.13;;;8.20;99.90;;;;;;5080975;28;20020;-57
2024/03/11 04:04:49;;;;;;;62.53;33.13;;;8.10;99.90;;;;;;5092661;28;20115;-52
2024/03/11 04:07:15;;;;;;;61.45;31.33;;;8.10;99.90;;;;;;5091804;28;20099;-52
2024/03/11 04:09:40;;;;;;;61.30;32.88;;;8.10;99.90;;;;;;5088326;28;20110;-54
2024/03/11 04:12:06;;;;;;;58.03;31.45;;;8.10;99.90;;;;;;5079171;28;20078;-56
2024/03/11 04:14:32;;;;;;;65.45;34.15;;;8.10;99.90;;;;;;5085533;28;20036;-56
2024/03/11 04:16:58;;;;;;;63.88;34.10;;;8.10;99.90;;;;;;5083877;28;20038;-56
2024/03/11 04:19:25;;;;;;;65.10;35.97;;;8.10;99.90;;;;;;5073451;28;20032;-52
2024/03/11 04:21:53;;;;;;;65.03;34.58;;;8.00;99.90;;;;;;5091362;28;20095;-52
2024/03/11 04:24:20;;;;;;;66.90;34.15;;;8.00;99.90;;;;;;5086601;28;20032;-53
2024/03/11 04:26:46;;;;;;;60.47;33.90;;;8.00;99.90;;;;;;5079313;28;20173;-54
2024/03/11 04:29:12;;;;;;;64.82;32.97;;;8.00;99.90;;;;;;5071535;28;20119;-55
2024/03/11 04:31:39;;;;;;;64.63;34.40;;;8.00;99.90;;;;;;5086923;28;20029;-51
2024/03/11 04:34:07;;;;;;;58.25;31.20;;;8.00;99.90;;;;;;5085631;28;20035;-52
2024/03/11 04:36:33;;;;;;;57.85;32.83;;;8.00;99.90;;;;;;5090258;28;20090;-55
2024/03/11 04:38:59;;;;;;;60.20;31.95;;;8.00;99.90;;;;;;5078401;28;20028;-51
2024/03/11 04:41:25;;;;;;;58.63;30.88;;;8.00;99.90;;;;;;5087270;28;20030;-54
2024/03/11 04:43:50;;;;;;;64.32;34.45;;;8.00;99.90;;;;;;5091739;28;20020;-51
2024/03/11 04:46:17;;;;;;;62.65;32.55;;;8.00;99.90;;;;;;5090931;28;20385;-51
2024/03/11 04:48:42;;;;;;;68.00;35.38;;;8.00;99.90;;;;;;5081884;28;20024;-55
2024/03/11 04:51:08;;;;;;;64.78;34.30;;;8.00;99.90;;;;;;5071620;28;20536;-55
2024/03/11 04:53:33;;;;;;;68.57;34.17;;;8.00;99.90;;;;;;5086484;28;20046;-55
2024/03/11 04:56:00;;;;;;;62.55;33.65;;;8.00;99.90;;;;;;5101354;28;20086;-55
2024/03/11 04:58:26;;;;;;;56.60;30.40;;;8.00;99.90;;;;;;5097800;28;20032;-57
2024/03/11 05:00:51;;;;;;;61.10;31.42;;;7.90;99.90;;;;;;5102928;22;20144;-47
2024/03/11 05:03:18;;;;;;;66.65;31.95;;;7.90;99.90;;;;;;5072779;28;20024;-50
2024/03/11 05:05:44;;;;;;;58.38;30.88;;;7.80;99.90;;;;;;5072460;28;20100;-49
2024/03/11 05:08:10;;;;;;;62.88;32.28;;;7.80;99.90;;;;;;5072592;28;20095;-50
2024/03/11 05:10:35;;;;;;;51.25;28.13;;;7.80;99.90;;;;;;5072596;28;20061;-47
2024/03/11 05:13:03;;;;;;;58.70;29.83;;;7.80;99.90;;;;;;5072417;28;20067;-49
2024/03/11 05:15:29;;;;;;;57.30;27.48;;;7.80;99.90;;;;;;5072817;28;20481;-48
2024/03/11 05:17:55;;;;;;;53.72;28.00;;;7.80;99.90;;;;;;5072312;28;20054;-50
2024/03/11 05:20:21;;;;;;;52.80;27.25;;;7.80;99.90;;;;;;5071072;28;20032;-47
2024/03/11 05:22:48;;;;;;;54.22;27.55;;;7.70;99.90;;;;;;5071853;28;20094;-49
2024/03/11 05:25:19;;;;;;;58.17;26.73;;;7.70;99.90;;;;;;5072069;28;20043;-49
2024/03/11 05:27:51;;;;;;;52.42;26.92;;;7.70;99.90;;;;;;5072081;28;20020;-50
2024/03/11 05:30:17;;;;;;;46.38;24.38;;;7.70;99.90;;;;;;5072055;28;20024;-51
2024/03/11 05:32:43;;;;;;;49.78;24.73;;;7.70;99.90;;;;;;5071979;28;20490;-49
2024/03/11 05:35:09;;;;;;;44.85;23.25;;;7.70;99.90;;;;;;5072217;28;20025;-49
2024/03/11 05:37:36;;;;;;;48.13;23.45;;;7.70;99.90;;;;;;5071894;28;20142;-48
2024/03/11 05:40:11;;;;;;;43.97;22.85;;;7.70;99.90;;;;;;5071022;28;20040;-48
2024/03/11 05:42:38;;;;;;;41.40;21.38;;;7.70;99.90;;;;;;5071899;28;20604;-49
2024/03/11 05:45:04;;;;;;;42.58;21.23;;;7.70;99.90;;;;;;5072174;28;20592;-49
2024/03/11 05:47:29;;;;;;;40.28;20.48;;;7.70;99.90;;;;;;5070609;28;20021;-47
2024/03/11 05:49:55;;;;;;;39.53;19.17;;;7.80;99.90;;;;;;5071580;28;20054;-48
2024/03/11 05:52:24;;;;;;;35.08;19.10;;;7.80;99.90;;;;;;5071587;28;20363;-49
2024/03/11 05:54:51;;;;;;;36.35;18.85;;;7.70;99.90;;;;;;5071862;28;20063;-48
2024/03/11 05:57:25;;;;;;;38.90;18.88;;;7.70;99.90;;;;;;5070605;28;20111;-49
2024/03/11 05:59:54;;;;;;;32.10;16.60;;;7.70;99.90;;;;;;5053601;28;20494;-49
2024/03/11 06:02:20;;;;;;;34.65;17.05;;;7.70;99.90;;;;;;5071897;28;20050;-49
2024/03/11 06:04:46;;;;;;;32.53;17.42;;;7.70;99.90;;;;;;5072036;28;20115;-49
2024/03/11 06:07:12;;;;;;;32.03;16.13;;;7.70;99.90;;;;;;5071834;28;20086;-50
2024/03/11 06:09:38;;;;;;;25.75;13.05;;;7.80;99.90;;;;;;5071551;28;20020;-48
2024/03/11 06:12:05;;;;;;;30.45;14.63;;;7.70;99.90;;;;;;5071758;28;20043;-49
2024/03/11 06:14:31;;;;;;;23.40;12.10;;;7.70;99.90;;;;;;5071823;28;20417;-51
2024/03/11 06:16:57;;;;;;;19.98;11.18;;;7.80;99.90;;;;;;5071584;28;20025;-48
2024/03/11 06:19:23;;;;;;;12.63;7.55;;;7.80;99.90;;;;;;5071413;28;20417;-49
2024/03/11 06:21:49;;;;;;;13.10;8.00;;;7.80;99.90;;;;;;5071408;28;20079;-49
2024/03/11 06:24:15;;;;;;;9.80;5.68;;;7.70;99.90;;;;;;5071659;28;20777;-48
2024/03/11 06:26:41;;;;;;;9.13;5.03;;;7.70;99.90;;;;;;5071701;28;20036;-50
2024/03/11 06:29:07;;;;;;;8.27;4.65;;;7.70;99.90;;;;;;5071764;28;20031;-50
2024/03/11 06:31:39;;;;;;;6.28;3.50;;;7.70;99.90;;;;;;5070596;28;20028;-48
2024/03/11 06:34:07;;;;;;;6.43;3.70;;;7.70;99.90;;;;;;5070728;28;20025;-49
2024/03/11 06:36:34;;;;;;;5.15;3.63;;;7.60;99.90;;;;;;5061168;28;20033;-50
2024/03/11 06:39:00;;;;;;;4.78;2.55;;;7.60;99.90;;;;;;5050870;28;20025;-51
2024/03/11 06:41:25;;;;;;;3.35;1.98;;;7.60;99.90;;;;;;5050835;28;20078;-47
2024/03/11 06:43:51;;;;;;;5.88;2.53;;;7.50;99.90;;;;;;5051220;28;20399;-48
2024/03/11 06:46:18;;;;;;;4.30;2.17;;;7.50;99.90;;;;;;5049006;28;20032;-49
2024/03/11 06:48:44;;;;;;;4.22;1.85;;;7.50;99.90;;;;;;5050791;28;20037;-49
2024/03/11 06:51:11;;;;;;;2.45;1.42;;;7.50;99.90;;;;;;5051156;28;20501;-49
2024/03/11 06:53:38;;;;;;;3.30;2.00;;;7.50;99.90;;;;;;5054712;28;20379;-48
2024/03/11 06:56:12;;;;;;;4.40;1.63;;;7.50;99.90;;;;;;5054415;28;20033;-48
2024/03/11 06:58:38;;;;;;;2.67;1.52;;;7.50;99.90;;;;;;5054475;28;20029;-49
2024/03/11 07:01:07;;;;;;;5.43;2.03;;;7.40;99.90;;;;;;5054204;28;20104;-49
2024/03/11 07:03:37;;;;;;;3.63;2.15;;;7.40;99.90;;;;;;5054628;28;20103;-49
2024/03/11 07:06:04;;;;;;;2.42;1.70;;;7.50;99.90;;;;;;5054262;28;20021;-49
2024/03/11 07:08:34;;;;;;;3.30;1.88;;;7.50;99.90;;;;;;5054521;28;20078;-49
2024/03/11 07:11:01;;;;;;;3.58;2.13;;;7.40;99.90;;;;;;5054517;28;20021;-49
2024/03/11 07:13:35;;;;;;;6.00;2.20;;;7.40;99.90;;;;;;5054598;28;20082;-49
2024/03/11 07:16:03;;;;;;;3.45;2.17;;;7.50;99.90;;;;;;5053696;28;20091;-49
2024/03/11 07:18:30;;;;;;;3.58;2.00;;;7.40;99.90;;;;;;5054281;28;20040;-49
2024/03/11 07:20:57;;;;;;;4.13;1.88;;;7.40;99.90;;;;;;5053303;28;20141;-48
2024/03/11 07:23:25;;;;;;;4.28;1.83;;;7.40;99.90;;;;;;5053340;28;20040;-49
2024/03/11 07:25:51;;;;;;;3.30;1.58;;;7.40;99.90;;;;;;5053874;28;20100;-49
2024/03/11 07:28:17;;;;;;;3.80;1.77;;;7.40;99.90;;;;;;5054122;28;20498;-49
2024/03/11 07:30:45;;;;;;;3.13;1.77;;;7.40;99.90;;;;;;5053839;28;20043;-50
2024/03/11 07:33:14;;;;;;;2.83;1.85;;;7.40;99.90;;;;;;5054317;28;20068;-49
2024/03/11 07:35:43;;;;;;;3.20;1.50;;;7.40;99.90;;;;;;5053355;28;20025;-49
2024/03/11 07:38:10;;;;;;;3.33;1.60;;;7.40;99.90;;;;;;5053401;28;20029;-48
2024/03/11 07:40:37;;;;;;;4.57;1.58;;;7.30;99.90;;;;;;5053786;28;20509;-51
2024/03/11 07:43:03;;;;;;;3.50;2.00;;;7.40;99.90;;;;;;5053767;28;20017;-48
2024/03/11 07:45:29;;;;;;;1.95;1.25;;;7.30;99.90;;;;;;5053435;28;20033;-49
2024/03/11 07:47:55;;;;;;;2.40;1.30;;;7.30;99.90;;;;;;5053699;28;20075;-49
2024/03/11 07:50:24;;;;;;;2.13;1.23;;;7.40;99.90;;;;;;5053592;28;20033;-47
2024/03/11 07:52:50;;;;;;;3.70;1.60;;;7.40;99.90;;;;;;5053744;28;20025;-49
2024/03/11 07:55:22;;;;;;;2.58;1.35;;;7.40;99.90;;;;;;5054015;28;20079;-50
2024/03/11 07:57:48;;;;;;;2.70;1.50;;;7.30;99.90;;;;;;5053483;28;20061;-49
2024/03/11 08:00:18;;;;;;;2.78;1.33;;;7.40;99.90;;;;;;5053154;28;20056;-50
2024/03/11 08:02:52;;;;;;;4.85;1.45;;;7.40;99.90;;;;;;5053298;28;20360;-48
2024/03/11 08:05:18;;;;;;;1.98;1.30;;;7.40;99.90;;;;;;5052357;28;20079;-49
2024/03/11 08:07:45;;;;;;;2.38;1.27;;;7.40;99.90;;;;;;5053170;28;20025;-48
2024/03/11 08:10:12;;;;;;;3.53;1.35;;;7.40;99.90;;;;;;5053232;28;20037;-50
2024/03/11 08:12:39;;;;;;;2.22;1.40;;;7.40;99.90;;;;;;5053269;28;20051;-50
2024/03/11 08:15:07;;;;;;;2.25;1.30;;;7.40;99.90;;;;;;5054625;28;20032;-49
2024/03/11 08:17:34;;;;;;;2.85;1.60;;;7.40;99.90;;;;;;5073236;28;20024;-50
2024/03/11 08:19:59;;;;;;;4.70;1.75;;;7.40;99.90;;;;;;5073479;28;20029;-50
2024/03/11 08:22:26;;;;;;;2.53;1.60;;;7.50;99.90;;;;;;5073014;28;20390;-49
2024/03/11 08:24:51;;;;;;;3.67;1.80;;;7.40;99.90;;;;;;5073004;28;20021;-49
2024/03/11 08:27:17;;;;;;;3.80;1.17;;;7.50;99.90;;;;;;5072721;28;20116;-49
2024/03/11 08:29:45;;;;;;;2.03;1.25;;;7.40;99.90;;;;;;5073166;28;20028;-49
2024/03/11 08:32:12;;;;;;;2.90;1.50;;;7.50;99.90;;;;;;5093495;28;20113;-48
2024/03/11 08:34:38;;;;;;;1.55;0.95;;;7.40;99.90;;;;;;5091908;28;20024;-49
2024/03/11 08:37:04;;;;;;;1.88;1.08;;;7.40;99.90;;;;;;5092528;28;20026;-51
2024/03/11 08:39:31;;;;;;;2.70;1.00;;;7.40;99.90;;;;;;5092020;28;20032;-49
2024/03/11 08:41:57;;;;;;;2.08;1.02;;;7.40;99.90;;;;;;5092467;28;20032;-48
2024/03/11 08:44:23;;;;;;;3.55;1.23;;;7.40;99.90;;;;;;5092595;28;20031;-52
2024/03/11 08:46:51;;;;;;;2.53;1.10;;;7.40;99.90;;;;;;5092672;28;20025;-51
2024/03/11 08:49:16;;;;;;;1.73;0.93;;;7.50;99.90;;;;;;5091929;28;20039;-49
2024/03/11 08:51:42;;;;;;;2.60;0.77;;;7.40;99.90;;;;;;5092652;28;20024;-49
2024/03/11 08:54:08;;;;;;;1.83;0.70;;;7.40;99.90;;;;;;5093106;28;20447;-49
2024/03/11 08:56:34;;;;;;;1.30;0.93;;;7.30;99.90;;;;;;5092432;28;20385;-48
2024/03/11 08:59:10;;;;;;;0.98;0.68;;;7.40;99.90;;;;;;5092279;28;20079;-48
2024/03/11 09:01:40;;;;;;;0.95;0.73;;;7.30;99.90;;;;;;5092540;28;20051;-49
2024/03/11 09:04:10;;;;;;;0.85;0.50;;;7.40;99.90;;;;;;5092625;28;20074;-48
2024/03/11 09:06:38;;;;;;;0.68;0.55;;;7.40;99.90;;;;;;5092723;28;20478;-47
2024/03/11 09:09:04;;;;;;;1.98;1.10;;;7.50;99.90;;;;;;5092492;28;20280;-49
2024/03/11 09:11:31;;;;;;;0.52;0.43;;;7.40;99.90;;;;;;5092546;28;20028;-49
2024/03/11 09:13:57;;;;;;;1.15;0.80;;;7.50;99.90;;;;;;5092518;28;20043;-50
2024/03/11 09:16:27;;;;;;;1.10;0.50;;;7.50;99.90;;;;;;5091143;28;20023;-48
2024/03/11 09:18:53;;;;;;;0.68;0.57;;;7.50;99.90;;;;;;5092477;28;20110;-49
2024/03/11 09:21:21;;;;;;;0.85;0.50;;;7.50;99.90;;;;;;5091100;28;20024;-50
2024/03/11 09:23:48;;;;;;;0.95;0.60;;;7.50;99.90;;;;;;5092252;28;20043;-49
2024/03/11 09:26:13;;;;;;;0.95;0.57;;;7.60;99.90;;;;;;5092400;28;20485;-49
2024/03/11 09:28:39;;;;;;;1.63;0.77;;;7.50;99.90;;;;;;5089459;28;20028;-49
2024/03/11 09:31:04;;;;;;;1.08;0.88;;;7.60;99.90;;;;;;5071688;28;20115;-48
2024/03/11 09:33:30;;;;;;;1.13;0.73;;;7.50;99.90;;;;;;5071887;28;20029;-50
2024/03/11 09:35:55;;;;;;;3.10;0.75;;;7.60;99.90;;;;;;5071714;28;20052;-49
2024/03/11 09:38:21;;;;;;;2.15;0.65;;;7.60;99.90;;;;;;5070462;28;20508;-49
2024/03/11 09:40:55;;;;;;;1.13;0.60;;;7.60;99.90;;;;;;5070392;28;20025;-49
2024/03/11 09:43:23;;;;;;;7.57;3.67;;;7.70;99.90;;;;;;5071225;28;20039;-49
2024/03/11 09:45:51;;;;;;;41.13;11.90;;;7.70;99.90;;;;;;5071581;28;20382;-50
2024/03/11 09:48:17;;;;;;;27.13;9.27;;;7.70;99.90;;;;;;5071565;28;20029;-49
2024/03/11 09:50:42;;;;;;;4.95;2.72;;;7.70;99.90;;;;;;5071412;28;20506;-52
2024/03/11 09:53:18;;;;;;;4.75;2.55;;;7.70;99.90;;;;;;5071140;28;20025;-49
2024/03/11 09:55:44;;;;;;;1.52;0.98;;;7.80;99.90;;;;;;5071325;28;20033;-49
2024/03/11 09:58:13;;;;;;;4.82;2.10;;;7.90;99.90;;;;;;5071477;28;20363;-49
2024/03/11 10:00:48;;;;;;;2.50;1.27;;;7.90;99.90;;;;;;5071024;28;20103;-49
2024/03/11 10:03:24;;;;;;;5.78;1.40;;;7.90;99.90;;;;;;5071092;28;20112;-50
2024/03/11 10:06:07;;;;;;;6.18;3.25;;;8.10;99.90;;;;;;5053900;28;20111;-49
2024/03/11 10:08:35;;;;;;;1.38;1.00;;;8.20;99.90;;;;;;5070353;28;20028;-50
2024/03/11 10:11:20;;;;;;;2.53;2.08;;;8.30;99.90;;;;;;5071355;28;20025;-50
2024/03/11 10:13:47;;;;;;;1.05;0.95;;;8.20;99.90;;;;;;5053747;28;20058;-50
2024/03/11 10:16:18;;;;;;;1.02;0.75;;;8.20;99.90;;;;;;5071478;28;20036;-49
2024/03/11 10:19:02;;;;;;;1.83;0.55;;;8.20;99.90;;;;;;5070559;28;20025;-49
2024/03/11 10:21:33;;;;;;;0.88;0.65;;;8.20;99.90;;;;;;5070028;28;20032;-49
2024/03/11 10:24:00;;;;;;;0.95;0.70;;;8.30;99.90;;;;;;5053223;28;20099;-49
2024/03/11 10:26:30;;;;;;;1.70;0.70;;;8.40;99.90;;;;;;5072525;28;20024;-48
2024/03/11 10:29:00;;;;;;;0.90;0.57;;;8.40;99.90;;;;;;5073953;28;20021;-49
2024/03/11 10:31:28;;;;;;;2.13;0.98;;;8.40;99.90;;;;;;5075030;28;20122;-50
2024/03/11 10:34:10;;;;;;;3.20;0.70;;;8.30;99.90;;;;;;5075019;28;20028;-49
2024/03/11 10:36:39;;;;;;;5.50;2.92;;;8.40;99.90;;;;;;5075029;28;20064;-49
2024/03/11 10:39:10;;;;;;;50.03;16.33;;;8.40;99.90;;;;;;5074914;28;20304;-49
2024/03/11 10:41:38;;;;;;;11.15;3.50;;;8.40;99.90;;;;;;5074944;28;20037;-49
2024/03/11 10:44:15;;;;;;;9.20;2.60;;;8.30;99.90;;;;;;5074873;28;20029;-50
2024/03/11 10:46:41;;;;;;;22.33;6.88;;;8.20;99.90;;;;;;5074700;28;20556;-49
2024/03/11 10:49:15;;;;;;;39.17;14.32;;;8.30;99.90;;;;;;5074391;28;20025;-51
2024/03/11 10:51:45;;;;;;;4.90;1.60;;;8.30;99.90;;;;;;5074876;28;20029;-49
2024/03/11 10:54:28;;;;;;;1.83;0.95;;;8.20;99.90;;;;;;5074177;28;20097;-50
2024/03/11 10:56:57;;;;;;;0.90;0.65;;;8.30;99.90;;;;;;5075385;28;20402;-49
2024/03/11 10:59:29;;;;;;;1.00;0.70;;;8.30;99.90;;;;;;5073903;28;20040;-49
2024/03/11 11:02:00;;;;;;;1.63;1.15;;;8.30;99.90;;;;;;5074301;28;20516;-49
2024/03/11 11:04:29;;;;;;;1.20;1.00;;;8.40;99.90;;;;;;5084265;22;20049;-82
2024/03/11 11:06:59;;;;;;;3.05;1.83;;;8.40;99.90;;;;;;5076665;28;20025;-83
2024/03/11 11:09:27;;;;;;;1.02;0.70;;;8.50;99.90;;;;;;5087913;28;20044;-82
2024/03/11 11:11:54;;;;;;;1.08;0.90;;;8.40;99.90;;;;;;5070310;28;20090;-83
2024/03/11 11:14:24;;;;;;;7.13;3.22;;;8.40;99.90;;;;;;5082929;28;20024;-83
2024/03/11 11:16:51;;;;;;;9.75;4.20;;;8.40;99.90;;;;;;5069114;28;20093;-82
2024/03/11 11:19:24;;;;;;;3.80;2.05;;;8.30;99.90;;;;;;5064624;28;20029;-83
2024/03/11 11:21:51;;;;;;;2.83;1.23;;;8.40;99.90;;;;;;5080248;28;20063;-82
2024/03/11 11:24:31;;;;;;;5.70;2.22;;;8.40;99.90;;;;;;5072777;28;20036;-83
2024/03/11 11:27:02;;;;;;;8.93;2.00;;;8.40;99.90;;;;;;5070918;28;20064;-83
2024/03/11 11:29:31;;;;;;;12.10;3.78;;;8.40;99.90;;;;;;5087061;28;20025;-82
2024/03/11 11:32:06;;;;;;;5.60;1.90;;;8.40;99.90;;;;;;5057084;28;20028;-84
2024/03/11 11:34:52;;;;;;;24.77;9.93;;;8.40;99.90;;;;;;5071499;28;20048;-84
2024/03/11 11:37:23;;;;;;;11.77;5.38;;;8.50;99.90;;;;;;5071263;28;20032;-83
2024/03/11 11:39:52;;;;;;;16.85;7.10;;;8.50;99.90;;;;;;5069820;28;20028;-84
2024/03/11 11:42:39;;;;;;;42.10;16.38;;;8.40;99.90;;;;;;5083912;28;20049;-84
2024/03/11 11:45:13;;;;;;;12.02;5.45;;;8.40;99.90;;;;;;5077586;28;20027;-84
2024/03/11 11:47:40;;;;;;;4.78;2.45;;;8.40;99.90;;;;;;5092996;28;20488;-84
2024/03/11 11:50:30;;;;;;;2.75;1.50;;;8.40;99.90;;;;;;5086399;28;20040;-83
2024/03/11 11:53:01;;;;;;;2.10;1.40;;;8.40;99.90;;;;;;5063405;28;20050;-83
2024/03/11 11:55:28;;;;;;;4.45;1.10;;;8.60;99.90;;;;;;5076461;28;20060;-84
2024/03/11 11:58:10;;;;;;;10.15;3.58;;;8.70;99.90;;;;;;5061587;28;20115;-83
2024/03/11 12:00:40;;;;;;;15.77;5.45;;;8.70;99.90;;;;;;5082329;28;20036;-84
2024/03/11 12:03:27;;;;;;;17.80;6.18;;;8.90;99.90;;;;;;5062773;28;20084;-83
2024/03/11 12:06:20;;;;;;;15.00;5.53;;;9.00;99.90;;;;;;5084392;28;20028;-83
2024/03/11 12:08:51;;;;;;;21.20;8.18;;;8.90;99.90;;;;;;5078956;28;20020;-83
2024/03/11 12:11:20;;;;;;;30.80;11.43;;;9.00;99.90;;;;;;5074807;28;20088;-82
2024/03/11 12:13:47;;;;;;;22.75;7.35;;;8.90;99.90;;;;;;5084340;28;20021;-83
2024/03/11 12:16:23;;;;;;;34.05;10.65;;;8.80;99.90;;;;;;5068289;28;20060;-81
2024/03/11 12:19:00;;;;;;;8.20;3.45;;;8.90;99.90;;;;;;5075718;28;20025;-84
2024/03/11 12:21:27;;;;;;;12.00;4.30;;;8.80;99.90;;;;;;5060226;28;20024;-83
2024/03/11 12:23:54;;;;;;;29.13;11.00;;;8.90;99.90;;;;;;5088334;28;20029;-84
2024/03/11 12:26:23;;;;;;;6.15;3.45;;;8.90;99.90;;;;;;5064858;28;20040;-83
2024/03/11 12:29:07;;;;;;;6.57;3.10;;;8.90;99.90;;;;;;5069748;28;20030;-83
2024/03/11 12:31:35;;;;;;;7.70;3.95;;;8.80;99.90;;;;;;5077232;28;20079;-84
2024/03/11 12:34:09;;;;;;;5.88;2.83;;;8.70;99.90;;;;;;5058999;28;20509;-83
2024/03/11 12:36:40;;;;;;;33.38;12.95;;;8.70;99.90;;;;;;5059361;28;20028;-83
2024/03/11 12:39:33;;;;;;;8.90;3.60;;;8.80;99.90;;;;;;5082088;28;20035;-82
2024/03/11 12:42:00;;;;;;;9.70;5.30;;;8.70;99.90;;;;;;5057562;28;20021;-83
2024/03/11 12:44:27;;;;;;;10.45;4.78;;;8.80;99.90;;;;;;5063691;28;20033;-83
2024/03/11 12:46:53;;;;;;;4.35;2.35;;;8.70;99.90;;;;;;5085045;28;20029;-83
2024/03/11 12:49:24;;;;;;;3.42;1.65;;;8.70;99.90;;;;;;5081712;28;20075;-83
2024/03/11 12:52:04;;;;;;;7.78;3.67;;;8.80;99.90;;;;;;5066846;28;20482;-83